createdAt,value
2022-12-26T00:00:27.097Z,10.90
2022-12-26T00:02:53.987Z,11.00
2022-12-26T00:05:21.004Z,11.00
2022-12-26T00:07:47.875Z,10.90
2022-12-26T00:10:14.828Z,10.90
2022-12-26T00:12:41.539Z,10.90
2022-12-26T00:15:08.351Z,10.90
2022-12-26T00:17:35.186Z,10.90
2022-12-26T00:20:02.166Z,11.00
2022-12-26T00:22:29.031Z,11.00
2022-12-26T00:24:55.931Z,11.00
2022-12-26T00:27:22.786Z,11.00
2022-12-26T00:29:49.812Z,11.00
2022-12-26T00:32:26.141Z,11.00
2022-12-26T00:34:52.861Z,11.00
2022-12-26T00:37:19.611Z,11.00
2022-12-26T00:39:46.360Z,11.00
2022-12-26T00:42:13.236Z,11.00
2022-12-26T00:44:40.303Z,11.00
2022-12-26T00:47:07.273Z,11.00
2022-12-26T00:50:12.696Z,11.00
2022-12-26T00:52:21.238Z,11.00
2022-12-26T00:54:48.159Z,11.00
2022-12-26T00:57:14.865Z,11.00
2022-12-26T00:59:41.988Z,11.00
2022-12-26T01:02:28.847Z,11.00
2022-12-26T01:04:55.753Z,11.00
2022-12-26T01:07:22.757Z,11.00
2022-12-26T01:09:50.806Z,11.00
2022-12-26T01:12:17.558Z,10.90
2022-12-26T01:14:45.179Z,10.90
2022-12-26T01:17:11.929Z,10.90
2022-12-26T01:19:39.090Z,10.90
2022-12-26T01:22:05.973Z,10.90
2022-12-26T01:24:32.853Z,10.90
2022-12-26T01:26:59.875Z,10.90
2022-12-26T01:29:26.599Z,10.90
2022-12-26T01:31:53.481Z,10.90
2022-12-26T01:34:20.996Z,10.90
2022-12-26T01:36:47.811Z,10.90
2022-12-26T01:39:14.598Z,10.90
2022-12-26T01:41:41.268Z,10.90
2022-12-26T01:44:28.109Z,10.80
2022-12-26T01:46:54.848Z,10.80
2022-12-26T01:49:27.492Z,10.80
2022-12-26T01:51:57.293Z,10.80
2022-12-26T01:54:37.913Z,10.80
2022-12-26T01:57:15.415Z,10.80
2022-12-26T01:59:44.234Z,10.80
2022-12-26T02:02:11.173Z,10.80
2022-12-26T02:04:59.629Z,10.80
2022-12-26T02:07:26.768Z,10.80
2022-12-26T02:09:53.725Z,10.80
2022-12-26T02:12:34.237Z,10.80
2022-12-26T02:15:10.595Z,10.80
2022-12-26T02:17:38.266Z,10.80
2022-12-26T02:20:13.425Z,10.80
2022-12-26T02:22:40.379Z,10.80
2022-12-26T02:25:26.138Z,10.80
2022-12-26T02:28:12.006Z,10.80
2022-12-26T02:30:44.641Z,10.80
2022-12-26T02:33:25.028Z,10.80
2022-12-26T02:36:10.596Z,10.80
2022-12-26T02:38:56.257Z,10.80
2022-12-26T02:41:35.313Z,10.80
2022-12-26T02:44:33.267Z,10.80
2022-12-26T02:47:06.212Z,10.80
2022-12-26T02:50:00.914Z,10.80
2022-12-26T02:52:56.896Z,10.70
2022-12-26T02:55:44.861Z,10.80
2022-12-26T02:58:42.210Z,10.70
2022-12-26T03:01:34.102Z,10.70
2022-12-26T03:04:23.341Z,10.70
2022-12-26T03:07:32.823Z,10.70
2022-12-26T03:10:21.821Z,10.70
2022-12-26T03:13:11.791Z,10.70
2022-12-26T03:16:04.316Z,10.70
2022-12-26T03:18:57.984Z,10.70
2022-12-26T03:21:22.165Z,10.70
2022-12-26T03:23:51.469Z,10.70
2022-12-26T03:26:41.656Z,10.70
2022-12-26T03:29:28.958Z,10.70
2022-12-26T03:31:55.853Z,10.70
2022-12-26T03:34:23.291Z,10.70
2022-12-26T03:37:08.912Z,10.70
2022-12-26T03:40:11.705Z,10.70
2022-12-26T03:43:06.577Z,10.70
2022-12-26T03:45:52.480Z,10.70
2022-12-26T03:48:45.325Z,10.70
2022-12-26T03:51:37.172Z,10.80
2022-12-26T03:54:34.870Z,10.80
2022-12-26T03:57:23.528Z,10.70
2022-12-26T04:00:08.980Z,10.80
2022-12-26T04:03:02.917Z,10.70
2022-12-26T04:05:49.183Z,10.70
2022-12-26T04:08:41.378Z,10.70
2022-12-26T04:11:29.559Z,10.70
2022-12-26T04:14:35.254Z,10.70
2022-12-26T04:17:31.064Z,10.70
2022-12-26T04:20:10.058Z,10.70
2022-12-26T04:23:13.966Z,10.70
2022-12-26T04:26:07.927Z,10.70
2022-12-26T04:28:53.467Z,10.70
2022-12-26T04:31:46.066Z,10.70
2022-12-26T04:34:36.707Z,10.70
2022-12-26T04:37:23.402Z,10.70
2022-12-26T04:40:10.980Z,10.70
2022-12-26T04:42:58.122Z,10.70
2022-12-26T04:45:26.187Z,10.70
2022-12-26T04:48:12.043Z,10.70
2022-12-26T04:50:49.131Z,10.70
2022-12-26T04:53:16.352Z,10.70
2022-12-26T04:55:43.865Z,10.70
2022-12-26T04:58:11.185Z,10.70
2022-12-26T05:00:38.397Z,10.80
2022-12-26T05:03:24.160Z,10.70
2022-12-26T05:05:55.169Z,10.70
2022-12-26T05:08:45.772Z,10.70
2022-12-26T05:11:12.604Z,10.60
2022-12-26T05:13:39.446Z,10.60
2022-12-26T05:16:25.081Z,10.60
2022-12-26T05:19:10.461Z,10.50
2022-12-26T05:21:56.509Z,10.50
2022-12-26T05:24:42.513Z,10.40
2022-12-26T05:27:30.996Z,10.40
2022-12-26T05:29:58.058Z,10.30
2022-12-26T05:32:43.666Z,10.30
2022-12-26T05:35:10.579Z,10.30
2022-12-26T05:37:37.548Z,10.30
2022-12-26T05:40:04.455Z,10.30
2022-12-26T05:42:31.245Z,10.30
2022-12-26T05:44:58.208Z,10.30
2022-12-26T05:47:25.454Z,10.30
2022-12-26T05:49:52.461Z,10.40
2022-12-26T05:52:19.297Z,10.40
2022-12-26T05:54:46.125Z,10.40
2022-12-26T05:57:13.175Z,10.40
2022-12-26T05:59:40.214Z,10.40
2022-12-26T06:02:07.501Z,10.40
2022-12-26T06:04:36.399Z,10.50
2022-12-26T06:07:03.223Z,10.50
2022-12-26T06:09:30.232Z,10.50
2022-12-26T06:11:57.100Z,10.50
2022-12-26T06:14:24.137Z,10.50
2022-12-26T06:16:51.556Z,10.50
2022-12-26T06:19:18.722Z,10.50
2022-12-26T06:21:45.968Z,10.50
2022-12-26T06:24:14.037Z,10.50
2022-12-26T06:26:41.305Z,10.50
2022-12-26T06:29:09.402Z,10.50
2022-12-26T06:31:36.535Z,10.50
2022-12-26T06:34:03.908Z,10.50
2022-12-26T06:36:31.469Z,10.40
2022-12-26T06:38:58.660Z,10.40
2022-12-26T06:41:25.644Z,10.40
2022-12-26T06:43:53.037Z,10.30
2022-12-26T06:46:21.042Z,10.30
2022-12-26T06:48:47.954Z,10.30
2022-12-26T06:51:22.420Z,10.30
2022-12-26T06:53:50.081Z,10.20
2022-12-26T06:56:24.515Z,10.20
2022-12-26T06:58:58.578Z,10.20
2022-12-26T07:01:29.286Z,10.20
2022-12-26T07:03:56.459Z,10.10
2022-12-26T07:06:27.246Z,10.10
2022-12-26T07:08:57.437Z,10.10
2022-12-26T07:11:26.101Z,10.00
2022-12-26T07:13:53.721Z,10.00
2022-12-26T07:16:20.565Z,10.00
2022-12-26T07:18:47.391Z,9.90
2022-12-26T07:21:15.103Z,9.90
2022-12-26T07:23:44.581Z,9.90
2022-12-26T07:26:11.403Z,9.90
2022-12-26T07:28:38.320Z,9.90
2022-12-26T07:31:05.689Z,9.90
2022-12-26T07:33:32.944Z,9.90
2022-12-26T07:36:00.597Z,9.90
2022-12-26T07:38:27.671Z,9.90
2022-12-26T07:40:55.184Z,9.90
2022-12-26T07:43:22.258Z,9.90
2022-12-26T07:45:50.634Z,10.00
2022-12-26T07:48:17.716Z,10.00
2022-12-26T07:50:47.428Z,10.00
2022-12-26T07:53:14.862Z,10.00
2022-12-26T07:55:41.974Z,10.00
2022-12-26T07:58:09.010Z,10.00
2022-12-26T08:00:36.116Z,10.00
2022-12-26T08:03:07.317Z,10.00
2022-12-26T08:05:35.152Z,10.10
2022-12-26T08:08:02.026Z,10.00
2022-12-26T08:10:28.939Z,10.00
2022-12-26T08:12:58.570Z,10.00
2022-12-26T08:15:28.233Z,10.10
2022-12-26T08:17:55.071Z,10.10
2022-12-26T08:20:24.635Z,10.10
2022-12-26T08:22:51.561Z,10.10
2022-12-26T08:25:21.840Z,10.20
2022-12-26T08:27:49.337Z,10.20
2022-12-26T08:30:17.133Z,10.20
2022-12-26T08:32:46.635Z,10.20
2022-12-26T08:35:13.507Z,10.20
2022-12-26T08:37:40.412Z,10.20
2022-12-26T08:40:07.537Z,10.10
2022-12-26T08:42:40.080Z,10.10
2022-12-26T08:45:12.398Z,10.10
2022-12-26T08:47:39.425Z,10.10
2022-12-26T08:50:09.044Z,10.10
2022-12-26T08:52:35.891Z,10.10
2022-12-26T08:55:03.008Z,10.00
2022-12-26T08:57:30.029Z,10.00
2022-12-26T08:59:56.812Z,10.10
2022-12-26T09:02:26.180Z,10.20
2022-12-26T09:04:53.194Z,10.20
2022-12-26T09:07:25.013Z,10.30
2022-12-26T09:09:51.814Z,10.30
2022-12-26T09:12:18.694Z,10.40
2022-12-26T09:14:50.149Z,10.40
2022-12-26T09:17:17.181Z,10.50
2022-12-26T09:19:44.880Z,10.50
2022-12-26T09:22:35.005Z,10.50
2022-12-26T09:25:02.258Z,10.50
2022-12-26T09:27:29.386Z,10.50
2022-12-26T09:29:56.811Z,10.60
2022-12-26T09:32:23.546Z,10.60
2022-12-26T09:34:51.772Z,10.60
2022-12-26T09:37:18.945Z,10.60
2022-12-26T09:39:45.932Z,10.60
2022-12-26T09:42:27.463Z,10.60
2022-12-26T09:45:11.490Z,10.60
2022-12-26T09:47:53.732Z,10.60
2022-12-26T09:50:41.040Z,10.60
2022-12-26T09:53:19.407Z,10.60
2022-12-26T09:55:56.010Z,10.60
2022-12-26T09:58:39.668Z,10.60
2022-12-26T10:01:15.784Z,10.70
2022-12-26T10:03:44.723Z,10.70
2022-12-26T10:06:29.112Z,10.80
2022-12-26T10:09:15.549Z,10.80
2022-12-26T10:11:42.271Z,10.80
2022-12-26T10:14:19.775Z,10.80
2022-12-26T10:16:48.574Z,10.90
2022-12-26T10:19:32.480Z,10.90
2022-12-26T10:22:29.801Z,11.00
2022-12-26T10:24:59.132Z,11.10
2022-12-26T10:27:28.310Z,11.10
2022-12-26T10:29:58.097Z,11.20
2022-12-26T10:32:51.678Z,11.30
2022-12-26T10:35:33.362Z,11.30
2022-12-26T10:38:04.815Z,11.30
2022-12-26T10:40:35.740Z,11.30
2022-12-26T10:43:37.392Z,11.30
2022-12-26T10:46:19.995Z,11.30
2022-12-26T10:48:48.239Z,11.30
2022-12-26T10:51:16.459Z,11.30
2022-12-26T10:53:45.569Z,11.40
2022-12-26T10:56:16.563Z,11.40
2022-12-26T10:58:49.570Z,11.40
2022-12-26T11:01:30.318Z,11.40
2022-12-26T11:03:58.434Z,11.40
2022-12-26T11:06:27.659Z,11.40
2022-12-26T11:08:55.506Z,11.40
2022-12-26T11:11:46.248Z,11.40
2022-12-26T11:14:31.688Z,11.40
2022-12-26T11:17:04.466Z,11.50
2022-12-26T11:19:39.897Z,11.50
2022-12-26T11:22:23.216Z,11.50
2022-12-26T11:25:14.590Z,11.50
2022-12-26T11:27:45.194Z,11.50
2022-12-26T11:30:17.834Z,11.50
2022-12-26T11:32:51.482Z,11.50
2022-12-26T11:35:22.841Z,11.40
2022-12-26T11:37:55.529Z,11.50
2022-12-26T11:40:24.664Z,11.50
2022-12-26T11:42:57.515Z,11.40
2022-12-26T11:45:37.111Z,11.40
2022-12-26T11:48:09.056Z,11.40
2022-12-26T11:50:44.619Z,11.30
2022-12-26T11:53:15.525Z,11.30
2022-12-26T11:55:43.406Z,11.30
2022-12-26T11:58:18.463Z,11.20
2022-12-26T12:00:54.687Z,11.20
2022-12-26T12:03:32.634Z,11.10
2022-12-26T12:06:06.201Z,11.10
2022-12-26T12:08:46.072Z,11.10
2022-12-26T12:11:17.375Z,11.10
2022-12-26T12:13:53.877Z,11.10
2022-12-26T12:16:31.175Z,11.10
2022-12-26T12:19:04.225Z,11.00
2022-12-26T12:21:39.954Z,11.00
2022-12-26T12:24:17.418Z,10.90
2022-12-26T12:26:54.866Z,10.90
2022-12-26T12:29:47.144Z,10.90
2022-12-26T12:32:28.421Z,10.90
2022-12-26T12:35:20.213Z,10.90
2022-12-26T12:38:03.027Z,10.80
2022-12-26T12:40:44.194Z,10.80
2022-12-26T12:43:29.498Z,10.80
2022-12-26T12:45:59.861Z,10.90
2022-12-26T12:48:57.840Z,10.90
2022-12-26T12:51:24.728Z,10.90
2022-12-26T12:54:01.427Z,10.90
2022-12-26T12:56:42.116Z,10.90
2022-12-26T12:59:16.421Z,10.90
2022-12-26T13:01:45.384Z,10.90
2022-12-26T13:04:21.627Z,11.00
2022-12-26T13:06:53.767Z,11.00
2022-12-26T13:09:28.083Z,11.00
2022-12-26T13:12:01.746Z,11.10
2022-12-26T13:14:36.416Z,11.10
2022-12-26T13:17:06.582Z,11.10
2022-12-26T13:19:39.113Z,10.90
2022-12-26T13:22:12.853Z,10.80
2022-12-26T13:24:41.863Z,10.70
2022-12-26T13:27:11.731Z,10.50
2022-12-26T13:29:45.259Z,10.30
2022-12-26T13:32:26.158Z,10.20
2022-12-26T13:34:55.593Z,10.10
2022-12-26T13:37:32.840Z,10.00
2022-12-26T13:40:03.348Z,9.90
2022-12-26T13:42:51.019Z,9.90
2022-12-26T13:45:36.775Z,9.90
2022-12-26T13:48:33.209Z,9.80
2022-12-26T13:51:01.576Z,9.80
2022-12-26T13:53:30.991Z,9.90
2022-12-26T13:55:59.363Z,9.80
2022-12-26T13:58:39.446Z,9.90
2022-12-26T14:01:26.027Z,9.80
2022-12-26T14:04:01.383Z,9.80
2022-12-26T14:06:40.147Z,9.80
2022-12-26T14:09:16.577Z,9.80
2022-12-26T14:11:55.426Z,9.80
2022-12-26T14:14:52.410Z,9.80
2022-12-26T14:17:30.918Z,9.80
2022-12-26T14:20:16.655Z,9.80
2022-12-26T14:23:00.484Z,9.80
2022-12-26T14:25:50.926Z,9.70
2022-12-26T14:28:29.428Z,9.80
2022-12-26T14:31:10.594Z,9.80
2022-12-26T14:33:50.679Z,9.70
2022-12-26T14:36:29.736Z,9.70
2022-12-26T14:39:15.343Z,9.70
2022-12-26T14:42:19.622Z,9.60
2022-12-26T14:44:46.772Z,9.60
2022-12-26T14:47:33.705Z,9.50
2022-12-26T14:50:20.389Z,9.40
2022-12-26T14:52:47.843Z,9.30
2022-12-26T14:55:33.322Z,9.30
2022-12-26T14:58:19.692Z,9.20
2022-12-26T15:00:47.177Z,9.20
2022-12-26T15:03:34.242Z,9.20
2022-12-26T15:06:30.528Z,9.10
2022-12-26T15:08:57.226Z,9.20
2022-12-26T15:11:42.804Z,9.10
2022-12-26T15:14:10.090Z,9.00
2022-12-26T15:16:55.306Z,9.00
2022-12-26T15:19:25.168Z,9.00
2022-12-26T15:22:04.462Z,9.00
2022-12-26T15:25:16.893Z,8.90
2022-12-26T15:27:55.477Z,8.90
2022-12-26T15:30:31.762Z,8.90
2022-12-26T15:33:19.315Z,8.90
2022-12-26T15:35:53.448Z,8.90
2022-12-26T15:38:34.656Z,8.80
2022-12-26T15:41:18.502Z,8.80
2022-12-26T15:43:48.225Z,8.80
2022-12-26T15:46:22.353Z,8.70
2022-12-26T15:48:49.447Z,8.70
2022-12-26T15:51:36.500Z,8.70
2022-12-26T15:54:27.584Z,8.60
2022-12-26T15:57:06.783Z,8.60
2022-12-26T15:59:39.783Z,8.60
2022-12-26T16:02:14.409Z,8.60
2022-12-26T16:04:48.095Z,8.60
2022-12-26T16:07:33.931Z,8.60
2022-12-26T16:10:01.324Z,8.60
2022-12-26T16:12:29.237Z,8.50
2022-12-26T16:15:00.657Z,8.60
2022-12-26T16:17:28.207Z,8.50
2022-12-26T16:19:55.006Z,8.40
2022-12-26T16:22:43.784Z,8.40
2022-12-26T16:25:13.031Z,8.20
2022-12-26T16:27:39.961Z,8.10
2022-12-26T16:30:12.678Z,8.00
2022-12-26T16:32:41.634Z,7.90
2022-12-26T16:35:16.137Z,7.80
2022-12-26T16:37:43.171Z,7.70
2022-12-26T16:40:24.585Z,7.70
2022-12-26T16:42:59.122Z,7.60
2022-12-26T16:45:26.590Z,7.60
2022-12-26T16:47:54.455Z,7.50
2022-12-26T16:50:25.674Z,7.50
2022-12-26T16:53:04.839Z,7.50
2022-12-26T16:55:32.025Z,7.40
2022-12-26T16:58:01.239Z,7.40
2022-12-26T17:00:29.639Z,7.30
2022-12-26T17:02:57.775Z,7.30
2022-12-26T17:05:28.385Z,7.20
2022-12-26T17:07:55.934Z,7.20
2022-12-26T17:10:24.859Z,7.20
2022-12-26T17:12:52.161Z,7.10
2022-12-26T17:15:21.066Z,7.10
2022-12-26T17:17:48.537Z,7.10
2022-12-26T17:20:29.443Z,7.10
2022-12-26T17:22:56.630Z,7.00
2022-12-26T17:25:28.094Z,7.00
2022-12-26T17:28:17.832Z,7.00
2022-12-26T17:30:45.817Z,7.00
2022-12-26T17:33:28.959Z,7.00
2022-12-26T17:38:44.630Z,6.90
2022-12-26T17:41:12.918Z,6.80
2022-12-26T17:43:40.729Z,6.80
2022-12-26T17:46:08.431Z,6.70
2022-12-26T17:48:35.357Z,6.70
2022-12-26T17:51:04.529Z,6.70
2022-12-26T17:53:35.272Z,6.70
2022-12-26T17:56:05.889Z,6.70
2022-12-26T17:58:33.237Z,6.70
2022-12-26T18:01:00.771Z,6.70
2022-12-26T18:03:27.576Z,6.70
2022-12-26T18:05:56.444Z,6.70
2022-12-26T18:08:31.502Z,6.70
2022-12-26T18:10:58.479Z,6.60
2022-12-26T18:13:25.184Z,6.60
2022-12-26T18:15:53.412Z,6.60
2022-12-26T18:18:33.704Z,6.60
2022-12-26T18:21:00.631Z,6.60
2022-12-26T18:23:28.391Z,6.60
2022-12-26T18:25:56.185Z,6.60
2022-12-26T18:28:23.026Z,6.50
2022-12-26T18:30:49.939Z,6.50
2022-12-26T18:33:16.743Z,6.50
2022-12-26T18:35:43.864Z,6.50
2022-12-26T18:38:13.391Z,6.60
2022-12-26T18:40:41.970Z,6.50
2022-12-26T18:43:09.438Z,6.50
2022-12-26T18:45:38.173Z,6.50
2022-12-26T18:48:05.961Z,6.50
2022-12-26T18:50:33.701Z,6.50
2022-12-26T18:53:00.664Z,6.50
2022-12-26T18:55:28.684Z,6.50
2022-12-26T18:57:55.728Z,6.50
2022-12-26T19:00:22.891Z,6.50
2022-12-26T19:02:50.253Z,6.50
2022-12-26T19:05:18.518Z,6.50
2022-12-26T19:07:48.173Z,6.50
2022-12-26T19:10:19.407Z,6.50
2022-12-26T19:12:46.506Z,6.50
2022-12-26T19:15:14.753Z,6.50
2022-12-26T19:17:43.791Z,6.40
2022-12-26T19:20:19.117Z,6.30
2022-12-26T19:22:46.377Z,6.30
2022-12-26T19:25:13.795Z,6.20
2022-12-26T19:27:41.862Z,6.20
2022-12-26T19:30:09.199Z,6.20
2022-12-26T19:32:38.996Z,6.10
2022-12-26T19:35:06.372Z,6.10
2022-12-26T19:37:33.324Z,6.10
2022-12-26T19:40:00.155Z,6.10
2022-12-26T19:42:27.248Z,6.10
2022-12-26T19:44:54.335Z,6.10
2022-12-26T19:47:21.452Z,6.10
2022-12-26T19:49:48.758Z,6.10
2022-12-26T19:52:15.930Z,6.00
2022-12-26T19:54:43.111Z,6.00
2022-12-26T19:57:10.076Z,5.90
2022-12-26T19:59:36.940Z,5.80
2022-12-26T20:02:04.205Z,5.80
2022-12-26T20:04:31.557Z,5.80
2022-12-26T20:06:59.806Z,5.70
2022-12-26T20:09:26.955Z,5.70
2022-12-26T20:11:54.718Z,5.70
2022-12-26T20:14:22.616Z,5.70
2022-12-26T20:17:08.908Z,5.60
2022-12-26T20:19:36.549Z,5.60
2022-12-26T20:22:04.038Z,5.60
2022-12-26T20:24:31.220Z,5.50
2022-12-26T20:26:58.345Z,5.60
2022-12-26T20:29:27.658Z,5.60
2022-12-26T20:31:55.462Z,5.50
2022-12-26T20:34:22.219Z,5.40
2022-12-26T20:36:49.374Z,5.40
2022-12-26T20:39:19.109Z,5.40
2022-12-26T20:41:46.591Z,5.40
2022-12-26T20:44:14.288Z,5.30
2022-12-26T20:46:42.629Z,5.30
2022-12-26T20:49:10.426Z,5.30
2022-12-26T20:51:39.057Z,5.40
2022-12-26T20:54:07.271Z,5.40
2022-12-26T20:56:34.810Z,5.50
2022-12-26T20:59:01.942Z,5.50
2022-12-26T21:01:32.715Z,5.50
2022-12-26T21:04:00.594Z,5.50
2022-12-26T21:06:30.449Z,5.40
2022-12-26T21:08:57.740Z,5.40
2022-12-26T21:11:29.686Z,5.30
2022-12-26T21:13:58.345Z,5.30
2022-12-26T21:16:32.325Z,5.20
2022-12-26T21:18:59.387Z,5.30
2022-12-26T21:21:29.426Z,5.20
2022-12-26T21:23:57.725Z,5.20
2022-12-26T21:26:25.434Z,5.20
2022-12-26T21:28:59.770Z,5.20
2022-12-26T21:31:29.658Z,5.10
2022-12-26T21:33:57.547Z,5.10
2022-12-26T21:36:25.074Z,5.10
2022-12-26T21:38:52.902Z,5.10
2022-12-26T21:41:23.279Z,5.20
2022-12-26T21:43:50.404Z,5.20
2022-12-26T21:46:19.283Z,5.20
2022-12-26T21:48:50.245Z,5.10
2022-12-26T21:51:21.328Z,5.10
2022-12-26T21:53:50.485Z,5.10
2022-12-26T21:56:17.826Z,5.00
2022-12-26T21:59:03.518Z,4.90
2022-12-26T22:01:32.727Z,4.90
2022-12-26T22:04:18.743Z,4.90
2022-12-26T22:06:45.910Z,4.90
2022-12-26T22:09:15.723Z,5.00
2022-12-26T22:12:02.228Z,5.00
2022-12-26T22:14:29.104Z,5.10
2022-12-26T22:16:56.451Z,5.20
2022-12-26T22:19:26.871Z,5.20
2022-12-26T22:21:55.741Z,5.20
2022-12-26T22:24:25.296Z,5.30
2022-12-26T22:26:52.596Z,5.30
2022-12-26T22:29:19.605Z,5.30
2022-12-26T22:31:47.955Z,5.30
2022-12-26T22:34:16.300Z,5.30
2022-12-26T22:36:43.843Z,5.30
2022-12-26T22:39:16.151Z,5.30
2022-12-26T22:41:43.690Z,5.30
2022-12-26T22:44:12.317Z,5.30
2022-12-26T22:46:40.739Z,5.30
2022-12-26T22:49:09.218Z,5.30
2022-12-26T22:51:36.873Z,5.30
2022-12-26T22:54:03.740Z,5.30
2022-12-26T22:56:32.550Z,5.30
2022-12-26T22:59:03.302Z,5.20
2022-12-26T23:01:30.838Z,5.30
2022-12-26T23:03:59.828Z,5.30
2022-12-26T23:06:31.615Z,5.30
2022-12-26T23:08:59.904Z,5.30
2022-12-26T23:11:34.458Z,5.30
2022-12-26T23:14:02.716Z,5.30
2022-12-26T23:16:35.584Z,5.30
2022-12-26T23:19:31.579Z,5.30
2022-12-26T23:22:04.510Z,5.30
2022-12-26T23:24:32.120Z,5.30
2022-12-26T23:30:19.584Z,5.30
2022-12-26T23:32:48.763Z,5.20
2022-12-26T23:35:15.967Z,5.20
2022-12-26T23:37:43.028Z,5.20
2022-12-26T23:40:11.698Z,5.30
2022-12-26T23:42:38.975Z,5.20
2022-12-26T23:45:06.997Z,5.30
2022-12-26T23:47:36.377Z,5.30
2022-12-26T23:50:04.022Z,5.40
2022-12-26T23:52:33.488Z,5.40
2022-12-26T23:55:00.338Z,5.40
2022-12-26T23:57:27.255Z,5.50
2022-12-26T23:59:54.157Z,5.50
